createdAt,value
2023-04-18T00:02:17.936Z,7.95
2023-04-18T00:05:08.418Z,7.32
2023-04-18T00:07:57.035Z,7.82
2023-04-18T00:10:45.732Z,7.22
2023-04-18T00:13:35.367Z,8.35
2023-04-18T00:16:25.268Z,7.65
2023-04-18T00:19:14.534Z,9.65
2023-04-18T00:22:03.083Z,8.00
2023-04-18T00:24:52.920Z,12.45
2023-04-18T00:27:42.326Z,8.75
2023-04-18T00:30:30.792Z,13.85
2023-04-18T00:33:19.672Z,9.32
2023-04-18T00:36:10.296Z,12.60
2023-04-18T00:38:59.194Z,12.60
2023-04-18T00:41:48.022Z,12.65
2023-04-18T00:44:36.760Z,12.77
2023-04-18T00:47:26.538Z,12.57
2023-04-18T00:50:15.537Z,14.13
2023-04-18T00:53:04.333Z,12.40
2023-04-18T00:55:53.484Z,11.05
2023-04-18T00:58:42.725Z,14.38
2023-04-18T01:01:31.733Z,12.57
2023-04-18T01:04:20.287Z,13.05
2023-04-18T01:07:09.571Z,10.25
2023-04-18T01:09:58.943Z,11.90
2023-04-18T01:12:47.984Z,8.60
2023-04-18T01:15:37.212Z,7.70
2023-04-18T01:18:27.559Z,8.88
2023-04-18T01:21:16.074Z,9.07
2023-04-18T01:24:16.804Z,7.18
2023-04-18T01:27:06.032Z,6.45
2023-04-18T01:29:55.794Z,5.95
2023-04-18T01:32:46.142Z,6.43
2023-04-18T01:35:35.252Z,6.45
2023-04-18T01:38:24.048Z,7.32
2023-04-18T01:41:12.472Z,5.45
2023-04-18T01:44:01.391Z,5.30
2023-04-18T01:46:50.460Z,6.22
2023-04-18T01:49:39.685Z,6.13
2023-04-18T01:52:28.507Z,9.75
2023-04-18T01:55:17.202Z,9.73
2023-04-18T01:58:05.698Z,11.90
2023-04-18T02:00:55.241Z,14.13
2023-04-18T02:03:44.605Z,17.98
2023-04-18T02:06:35.022Z,11.77
2023-04-18T02:09:23.944Z,11.88
2023-04-18T02:12:13.293Z,10.07
2023-04-18T02:15:02.221Z,10.57
2023-04-18T02:17:55.567Z,11.40
2023-04-18T02:20:45.353Z,8.70
2023-04-18T02:23:34.134Z,7.65
2023-04-18T02:26:23.134Z,9.38
2023-04-18T02:29:12.889Z,7.70
2023-04-18T02:32:01.317Z,9.90
2023-04-18T02:34:50.040Z,7.53
2023-04-18T02:37:39.755Z,11.48
2023-04-18T02:40:28.535Z,7.82
2023-04-18T02:43:17.297Z,10.95
2023-04-18T02:46:05.832Z,7.45
2023-04-18T02:48:54.674Z,9.07
2023-04-18T02:51:46.863Z,9.32
2023-04-18T02:54:36.212Z,7.32
2023-04-18T02:57:32.501Z,8.82
2023-04-18T03:00:39.591Z,7.80
2023-04-18T03:03:28.325Z,7.05
2023-04-18T03:06:27.406Z,7.32
2023-04-18T03:09:17.135Z,6.55
2023-04-18T03:12:11.462Z,7.45
2023-04-18T03:15:00.838Z,6.68
2023-04-18T03:17:53.175Z,9.50
2023-04-18T03:20:43.454Z,8.10
2023-04-18T03:23:32.660Z,6.35
2023-04-18T03:26:24.850Z,6.70
2023-04-18T03:29:15.300Z,7.20
2023-04-18T03:32:07.324Z,8.25
2023-04-18T03:34:56.182Z,6.85
2023-04-18T03:37:45.104Z,7.43
2023-04-18T03:40:42.317Z,8.20
2023-04-18T03:43:38.385Z,7.15
2023-04-18T03:46:27.528Z,7.18
2023-04-18T03:49:18.729Z,7.57
2023-04-18T03:52:07.368Z,7.40
2023-04-18T03:54:56.131Z,7.15
2023-04-18T03:57:48.505Z,7.68
2023-04-18T04:00:46.002Z,14.95
2023-04-18T04:03:34.383Z,13.02
2023-04-18T04:06:23.064Z,17.33
2023-04-18T04:09:12.077Z,12.88
2023-04-18T04:12:03.275Z,9.65
2023-04-18T04:14:52.547Z,8.02
2023-04-18T04:17:41.577Z,7.22
2023-04-18T04:20:30.590Z,7.22
2023-04-18T04:23:30.196Z,6.75
2023-04-18T04:26:19.091Z,5.72
2023-04-18T04:29:19.484Z,7.28
2023-04-18T04:32:10.303Z,5.65
2023-04-18T04:35:00.750Z,9.40
2023-04-18T04:37:51.784Z,7.65
2023-04-18T04:40:59.427Z,8.20
2023-04-18T04:43:51.294Z,9.85
2023-04-18T04:46:45.049Z,13.75
2023-04-18T04:49:41.171Z,11.45
2023-04-18T04:52:29.545Z,13.77
2023-04-18T04:55:19.102Z,8.45
2023-04-18T04:58:08.681Z,7.60
2023-04-18T05:01:18.132Z,9.60
2023-04-18T05:04:07.338Z,10.55
2023-04-18T05:06:57.669Z,9.93
2023-04-18T05:09:46.556Z,9.75
2023-04-18T05:12:35.804Z,10.65
2023-04-18T05:15:25.207Z,9.25
2023-04-18T05:18:14.510Z,11.45
2023-04-18T05:21:03.204Z,10.93
2023-04-18T05:23:52.488Z,8.75
2023-04-18T05:26:41.308Z,10.48
2023-04-18T05:29:30.833Z,11.13
2023-04-18T05:32:19.745Z,8.98
2023-04-18T05:35:09.450Z,9.75
2023-04-18T05:37:59.195Z,9.18
2023-04-18T05:40:47.910Z,12.10
2023-04-18T05:43:36.719Z,9.45
2023-04-18T05:46:25.194Z,9.63
2023-04-18T05:49:14.811Z,8.35
2023-04-18T05:52:03.458Z,11.05
2023-04-18T05:54:52.700Z,7.07
2023-04-18T05:57:41.710Z,7.80
2023-04-18T06:00:31.031Z,9.52
2023-04-18T06:03:19.682Z,12.50
2023-04-18T06:06:08.542Z,12.60
2023-04-18T06:08:57.369Z,12.40
2023-04-18T06:11:46.574Z,10.93
2023-04-18T06:14:34.984Z,12.45
2023-04-18T06:17:23.488Z,12.38
2023-04-18T06:20:13.154Z,9.52
2023-04-18T06:23:02.254Z,8.40
2023-04-18T06:25:50.743Z,8.48
2023-04-18T06:28:39.080Z,7.57
2023-04-18T06:31:28.056Z,6.75
2023-04-18T06:34:17.153Z,10.60
2023-04-18T06:37:05.961Z,13.90
2023-04-18T06:39:55.090Z,21.38
2023-04-18T06:42:45.212Z,15.88
2023-04-18T06:45:34.278Z,12.57
2023-04-18T06:48:23.825Z,9.65
2023-04-18T06:51:12.961Z,10.50
2023-04-18T06:54:02.058Z,8.10
2023-04-18T06:56:50.603Z,12.32
2023-04-18T06:59:40.956Z,9.05
2023-04-18T07:02:30.252Z,8.13
2023-04-18T07:05:19.389Z,10.50
2023-04-18T07:08:08.595Z,10.23
2023-04-18T07:10:58.048Z,10.77
2023-04-18T07:13:48.862Z,8.93
2023-04-18T07:16:37.929Z,9.25
2023-04-18T07:19:27.277Z,8.38
2023-04-18T07:22:41.557Z,5.88
2023-04-18T07:25:30.109Z,7.32
2023-04-18T07:28:18.473Z,7.10
2023-04-18T07:31:11.284Z,9.65
2023-04-18T07:34:00.006Z,8.32
2023-04-18T07:36:48.524Z,7.70
2023-04-18T07:39:36.738Z,8.90
2023-04-18T07:42:24.968Z,8.18
2023-04-18T07:45:13.197Z,6.60
2023-04-18T07:48:02.042Z,6.65
2023-04-18T07:50:50.508Z,9.85
2023-04-18T07:53:41.134Z,6.35
2023-04-18T07:56:29.819Z,9.10
2023-04-18T07:59:18.358Z,7.57
2023-04-18T08:02:07.023Z,6.70
2023-04-18T08:04:56.789Z,8.30
2023-04-18T08:07:46.170Z,5.85
2023-04-18T08:10:35.051Z,5.25
2023-04-18T08:13:23.518Z,5.82
2023-04-18T08:16:12.554Z,6.32
2023-04-18T08:19:02.081Z,6.32
2023-04-18T08:21:52.302Z,7.18
2023-04-18T08:24:44.537Z,7.25
2023-04-18T08:27:39.781Z,5.65
2023-04-18T08:30:28.796Z,5.78
2023-04-18T08:33:17.383Z,6.88
2023-04-18T08:36:06.295Z,5.50
2023-04-18T08:38:57.530Z,5.20
2023-04-18T08:41:52.847Z,8.55
2023-04-18T08:44:42.441Z,8.40
2023-04-18T08:47:31.264Z,9.25
2023-04-18T08:50:19.861Z,7.00
2023-04-18T08:53:08.561Z,6.47
2023-04-18T08:55:58.364Z,4.13
2023-04-18T08:58:46.826Z,5.10
2023-04-18T09:01:51.278Z,6.07
2023-04-18T09:04:43.529Z,4.35
2023-04-18T09:07:31.996Z,3.70
2023-04-18T09:10:33.313Z,3.72
2023-04-18T09:13:39.893Z,3.55
2023-04-18T09:16:28.739Z,4.32
2023-04-18T09:19:21.810Z,2.58
2023-04-18T09:22:10.398Z,2.25
2023-04-18T09:24:59.566Z,3.03
2023-04-18T09:27:47.845Z,2.88
2023-04-18T09:30:42.331Z,2.92
2023-04-18T09:33:36.951Z,3.72
2023-04-18T09:36:27.940Z,5.75
2023-04-18T09:39:28.549Z,3.70
2023-04-18T09:42:18.286Z,2.75
2023-04-18T09:45:08.591Z,2.92
2023-04-18T09:47:58.792Z,3.13
2023-04-18T09:50:48.969Z,3.78
2023-04-18T09:53:44.951Z,5.13
2023-04-18T09:56:37.343Z,6.90
2023-04-18T09:59:47.964Z,6.38
2023-04-18T10:02:50.465Z,6.22
2023-04-18T10:05:41.700Z,9.30
2023-04-18T10:08:30.884Z,7.15
2023-04-18T10:11:20.298Z,8.60
2023-04-18T10:14:13.273Z,8.63
2023-04-18T10:17:02.353Z,6.90
2023-04-18T10:20:30.593Z,7.47
2023-04-18T10:23:37.631Z,5.32
2023-04-18T10:26:47.247Z,6.35
2023-04-18T10:29:51.780Z,5.30
2023-04-18T10:32:41.287Z,4.30
2023-04-18T10:35:30.131Z,5.88
2023-04-18T10:38:18.718Z,5.20
2023-04-18T10:41:15.367Z,3.42
2023-04-18T10:44:16.000Z,6.20
2023-04-18T10:47:07.354Z,4.78
2023-04-18T10:49:57.160Z,4.95
2023-04-18T10:52:45.811Z,4.57
2023-04-18T10:55:34.784Z,8.77
2023-04-18T10:58:23.293Z,6.57
2023-04-18T11:01:14.385Z,4.25
2023-04-18T11:04:12.874Z,3.92
2023-04-18T11:07:03.009Z,2.50
2023-04-18T11:09:55.283Z,4.50
2023-04-18T11:12:43.700Z,3.28
2023-04-18T11:15:32.757Z,2.13
2023-04-18T11:18:21.712Z,5.32
2023-04-18T11:21:10.781Z,2.45
2023-04-18T11:23:59.320Z,3.70
2023-04-18T11:26:48.296Z,3.42
2023-04-18T11:29:37.482Z,3.58
2023-04-18T11:32:26.347Z,3.13
2023-04-18T11:35:16.154Z,4.22
2023-04-18T11:38:05.773Z,3.55
2023-04-18T11:40:54.793Z,4.22
2023-04-18T11:43:46.717Z,4.82
2023-04-18T11:46:39.020Z,5.43
2023-04-18T11:49:32.550Z,6.30
2023-04-18T11:52:21.363Z,7.82
2023-04-18T11:55:24.906Z,7.07
2023-04-18T11:58:14.768Z,8.23
2023-04-18T12:01:19.113Z,7.15
2023-04-18T12:04:09.222Z,5.20
2023-04-18T12:06:58.739Z,5.07
2023-04-18T12:09:47.167Z,6.18
2023-04-18T12:12:36.787Z,6.57
2023-04-18T12:15:29.474Z,7.15
2023-04-18T12:18:22.075Z,4.35
2023-04-18T12:21:10.839Z,7.43
2023-04-18T12:23:59.792Z,4.82
2023-04-18T12:26:49.781Z,6.30
2023-04-18T12:29:38.104Z,5.10
2023-04-18T12:32:27.049Z,6.45
2023-04-18T12:35:16.847Z,6.90
2023-04-18T12:38:06.095Z,10.52
2023-04-18T12:40:54.546Z,6.25
2023-04-18T12:43:43.397Z,5.07
2023-04-18T12:46:32.486Z,4.68
2023-04-18T12:49:20.778Z,4.65
2023-04-18T12:52:09.740Z,5.15
2023-04-18T12:54:58.186Z,10.23
2023-04-18T12:57:46.633Z,12.13
2023-04-18T13:00:35.844Z,9.57
2023-04-18T13:03:25.158Z,7.70
2023-04-18T13:06:13.879Z,6.80
2023-04-18T13:09:02.720Z,7.82
2023-04-18T13:11:51.385Z,7.50
2023-04-18T13:14:40.084Z,6.93
2023-04-18T13:17:28.818Z,6.95
2023-04-18T13:20:17.335Z,5.35
2023-04-18T13:23:06.325Z,6.50
2023-04-18T13:25:55.147Z,7.13
2023-04-18T13:28:43.674Z,6.07
2023-04-18T13:31:32.102Z,5.63
2023-04-18T13:34:20.656Z,6.88
2023-04-18T13:37:09.647Z,5.88
2023-04-18T13:39:58.158Z,8.75
2023-04-18T13:42:46.920Z,8.15
2023-04-18T13:45:35.411Z,6.63
2023-04-18T13:48:24.276Z,7.00
2023-04-18T13:51:13.737Z,5.63
2023-04-18T13:54:03.605Z,6.53
2023-04-18T13:56:57.649Z,4.82
2023-04-18T13:59:46.144Z,5.32
2023-04-18T14:02:34.600Z,3.92
2023-04-18T14:05:23.957Z,4.63
2023-04-18T14:08:12.972Z,4.07
2023-04-18T14:11:01.500Z,5.80
2023-04-18T14:13:50.256Z,4.47
2023-04-18T14:16:38.814Z,4.28
2023-04-18T14:19:27.966Z,5.18
2023-04-18T14:22:16.862Z,4.95
2023-04-18T14:25:06.031Z,3.83
2023-04-18T14:28:06.949Z,7.03
2023-04-18T14:31:00.012Z,4.05
2023-04-18T14:33:48.670Z,5.00
2023-04-18T14:36:37.454Z,4.28
2023-04-18T14:39:26.422Z,4.63
2023-04-18T14:42:15.148Z,4.80
2023-04-18T14:45:05.297Z,4.72
2023-04-18T14:47:55.904Z,3.38
2023-04-18T14:50:44.811Z,4.25
2023-04-18T14:53:33.532Z,4.28
2023-04-18T14:56:25.933Z,4.15
2023-04-18T14:59:16.378Z,5.15
2023-04-18T15:02:05.798Z,4.18
2023-04-18T15:04:55.041Z,5.30
2023-04-18T15:07:45.152Z,6.63
2023-04-18T15:10:33.984Z,6.32
2023-04-18T15:13:22.514Z,6.20
2023-04-18T15:16:12.272Z,6.22
2023-04-18T15:19:00.709Z,7.97
2023-04-18T15:21:49.674Z,7.05
2023-04-18T15:24:38.456Z,2.05
2023-04-18T15:27:26.967Z,3.65
2023-04-18T15:40:28.923Z,3.00
2023-04-18T15:43:18.160Z,5.20
2023-04-18T15:46:07.197Z,10.93
2023-04-18T15:48:55.690Z,15.27
2023-04-18T15:51:44.524Z,14.25
2023-04-18T15:54:33.676Z,10.63
2023-04-18T15:57:22.466Z,8.15
2023-04-18T16:00:16.279Z,13.15
2023-04-18T16:03:05.522Z,10.40
2023-04-18T16:05:54.510Z,13.65
2023-04-18T16:08:43.188Z,12.75
2023-04-18T16:11:32.113Z,21.35
2023-04-18T16:14:20.878Z,19.02
2023-04-18T16:17:09.393Z,21.25
2023-04-18T16:19:58.128Z,43.92
2023-04-18T16:22:47.045Z,24.33
2023-04-18T16:25:35.472Z,21.85
2023-04-18T16:28:24.451Z,16.10
2023-04-18T16:31:15.599Z,12.48
2023-04-18T16:34:04.305Z,20.73
2023-04-18T16:36:53.923Z,19.38
2023-04-18T16:39:44.094Z,21.85
2023-04-18T16:42:33.608Z,20.50
2023-04-18T16:45:22.016Z,21.20
2023-04-18T16:48:11.335Z,24.83
2023-04-18T16:51:00.280Z,18.98
2023-04-18T16:53:49.383Z,29.42
2023-04-18T16:56:37.898Z,27.33
2023-04-18T16:59:26.771Z,32.88
2023-04-18T17:02:15.742Z,28.30
2023-04-18T17:05:04.389Z,26.80
2023-04-18T17:07:53.139Z,33.13
2023-04-18T17:10:42.083Z,24.88
2023-04-18T17:13:31.727Z,29.35
2023-04-18T17:16:20.794Z,34.38
2023-04-18T17:19:10.344Z,28.95
2023-04-18T17:21:59.296Z,27.10
2023-04-18T17:24:54.154Z,30.35
2023-04-18T17:27:43.234Z,17.98
2023-04-18T17:30:31.636Z,21.20
2023-04-18T17:33:20.171Z,25.13
2023-04-18T17:36:09.129Z,32.42
2023-04-18T17:39:05.471Z,29.92
2023-04-18T17:41:53.977Z,24.25
2023-04-18T17:44:42.483Z,23.27
2023-04-18T17:47:33.603Z,22.92
2023-04-18T17:50:23.016Z,20.00
2023-04-18T17:53:12.478Z,23.65
2023-04-18T17:56:01.154Z,21.52
2023-04-18T17:58:50.016Z,18.85
2023-04-18T18:01:40.469Z,17.45
2023-04-18T18:04:29.156Z,20.95
2023-04-18T18:07:18.746Z,29.50
2023-04-18T18:10:08.055Z,25.63
2023-04-18T18:12:57.024Z,62.78
2023-04-18T18:15:45.989Z,36.40
2023-04-18T18:18:49.735Z,33.45
2023-04-18T18:21:38.618Z,28.13
2023-04-18T18:24:27.652Z,42.03
2023-04-18T18:27:19.700Z,37.08
2023-04-18T18:30:09.009Z,27.38
2023-04-18T18:32:57.905Z,32.60
2023-04-18T18:35:47.098Z,38.13
2023-04-18T18:38:36.543Z,39.72
2023-04-18T18:41:25.774Z,34.00
2023-04-18T18:44:15.145Z,37.65
2023-04-18T18:47:03.537Z,50.33
2023-04-18T18:49:51.996Z,56.50
2023-04-18T18:52:43.086Z,60.25
2023-04-18T18:55:31.608Z,53.38
2023-04-18T18:58:20.813Z,48.33
2023-04-18T19:01:11.565Z,41.58
2023-04-18T19:04:01.238Z,33.35
2023-04-18T19:06:50.561Z,33.85
2023-04-18T19:09:38.938Z,39.70
2023-04-18T19:12:28.460Z,44.97
2023-04-18T19:15:18.130Z,43.03
2023-04-18T19:18:07.087Z,43.67
2023-04-18T19:20:56.338Z,43.55
2023-04-18T19:23:45.618Z,47.95
2023-04-18T19:26:34.606Z,54.33
2023-04-18T19:29:24.172Z,49.38
2023-04-18T19:32:13.142Z,50.28
2023-04-18T19:35:01.979Z,45.72
2023-04-18T19:37:52.534Z,39.33
2023-04-18T19:40:41.586Z,38.00
2023-04-18T19:43:30.900Z,36.70
2023-04-18T19:46:19.841Z,38.10
2023-04-18T19:49:09.095Z,42.35
2023-04-18T19:51:57.921Z,38.58
2023-04-18T19:54:47.252Z,33.10
2023-04-18T19:57:40.178Z,35.75
2023-04-18T20:00:29.650Z,28.93
2023-04-18T20:03:43.434Z,31.25
2023-04-18T20:06:32.153Z,32.20
2023-04-18T20:09:21.272Z,27.58
2023-04-18T20:12:11.026Z,31.60
2023-04-18T20:15:01.428Z,27.45
2023-04-18T20:17:55.727Z,25.38
2023-04-18T20:20:44.505Z,24.42
2023-04-18T20:23:33.108Z,22.75
2023-04-18T20:26:22.213Z,27.08
2023-04-18T20:29:11.361Z,25.83
2023-04-18T20:32:00.494Z,21.95
2023-04-18T20:34:49.576Z,20.00
2023-04-18T20:37:41.497Z,17.58
2023-04-18T20:40:30.899Z,20.27
2023-04-18T20:43:19.624Z,15.30
2023-04-18T20:46:08.675Z,15.40
2023-04-18T20:48:57.477Z,19.60
2023-04-18T20:51:47.390Z,20.50
2023-04-18T20:54:36.710Z,14.45
2023-04-18T20:57:25.608Z,13.60
2023-04-18T21:00:14.526Z,10.88
2023-04-18T21:03:04.456Z,12.57
2023-04-18T21:05:52.986Z,10.75
2023-04-18T21:08:42.289Z,14.07
2023-04-18T21:11:31.405Z,23.80
2023-04-18T21:14:20.814Z,17.92
2023-04-18T21:17:10.681Z,21.67
2023-04-18T21:19:59.084Z,21.90
2023-04-18T21:22:47.684Z,27.45
2023-04-18T21:25:37.031Z,28.27
2023-04-18T21:28:26.411Z,33.22
2023-04-18T21:31:15.220Z,32.28
2023-04-18T21:34:06.185Z,37.70
2023-04-18T21:36:55.355Z,35.85
2023-04-18T21:39:44.541Z,35.70
2023-04-18T21:42:35.351Z,29.65
2023-04-18T21:45:24.185Z,30.98
2023-04-18T21:48:13.161Z,33.40
2023-04-18T21:51:01.963Z,34.03
2023-04-18T21:53:50.927Z,34.80
2023-04-18T21:56:39.813Z,41.13
2023-04-18T21:59:28.774Z,34.92
2023-04-18T22:02:17.197Z,29.63
2023-04-18T22:05:07.720Z,27.08
2023-04-18T22:07:58.608Z,26.27
2023-04-18T22:10:50.507Z,23.80
2023-04-18T22:13:39.456Z,24.75
2023-04-18T22:16:28.926Z,28.17
2023-04-18T22:19:17.723Z,24.38
2023-04-18T22:22:06.508Z,20.38
2023-04-18T22:24:55.414Z,17.38
2023-04-18T22:27:45.227Z,22.80
2023-04-18T22:30:33.837Z,26.85
2023-04-18T22:33:22.313Z,25.65
2023-04-18T22:36:11.925Z,22.88
2023-04-18T22:39:00.826Z,21.35
2023-04-18T22:41:49.630Z,25.60
2023-04-18T22:44:38.567Z,41.85
2023-04-18T22:47:27.084Z,80.60
2023-04-18T22:50:16.563Z,45.05
2023-04-18T22:53:04.941Z,50.83
2023-04-18T22:55:53.238Z,24.75
2023-04-18T22:58:41.484Z,26.95
2023-04-18T23:01:29.861Z,35.88
2023-04-18T23:04:18.631Z,33.38
2023-04-18T23:07:07.777Z,33.90
2023-04-18T23:09:56.883Z,49.60
2023-04-18T23:12:45.755Z,113.90
2023-04-18T23:15:34.609Z,155.18
2023-04-18T23:18:23.484Z,322.40
2023-04-18T23:21:13.152Z,174.02
2023-04-18T23:24:02.219Z,298.05
2023-04-18T23:26:51.554Z,230.95
2023-04-18T23:29:40.290Z,192.60
2023-04-18T23:32:28.887Z,237.77
2023-04-18T23:35:18.141Z,197.60
2023-04-18T23:38:07.164Z,34.20
2023-04-18T23:40:55.862Z,33.75
2023-04-18T23:43:44.687Z,61.45
2023-04-18T23:46:35.057Z,39.85
2023-04-18T23:49:27.665Z,38.85
2023-04-18T23:52:17.002Z,50.20
2023-04-18T23:55:06.176Z,95.63
2023-04-18T23:57:55.200Z,49.88
